createdAt,value
2022-12-03T00:01:37.589Z,2.37
2022-12-03T00:04:06.007Z,2.38
2022-12-03T00:06:34.913Z,2.39
2022-12-03T00:09:04.568Z,2.36
2022-12-03T00:11:32.856Z,2.35
2022-12-03T00:14:00.992Z,2.34
2022-12-03T00:16:29.473Z,2.34
2022-12-03T00:18:58.128Z,2.35
2022-12-03T00:21:26.366Z,2.34
2022-12-03T00:23:54.636Z,2.34
2022-12-03T00:26:22.921Z,2.35
2022-12-03T00:28:52.466Z,2.35
2022-12-03T00:31:24.844Z,2.36
2022-12-03T00:33:53.662Z,2.36
2022-12-03T00:36:22.129Z,2.34
2022-12-03T00:38:50.721Z,2.32
2022-12-03T00:41:18.956Z,2.31
2022-12-03T00:43:47.254Z,2.30
2022-12-03T00:46:20.897Z,2.30
2022-12-03T00:48:49.621Z,2.30
2022-12-03T00:51:18.075Z,2.30
2022-12-03T00:53:46.292Z,2.30
2022-12-03T00:56:14.558Z,2.29
2022-12-03T00:58:42.834Z,2.29
2022-12-03T01:01:11.210Z,2.27
2022-12-03T01:03:39.394Z,2.29
2022-12-03T01:06:07.556Z,2.28
2022-12-03T01:08:35.712Z,2.28
2022-12-03T01:11:04.427Z,2.32
2022-12-03T01:13:32.589Z,2.31
2022-12-03T01:16:00.912Z,2.25
2022-12-03T01:18:29.356Z,2.23
2022-12-03T01:20:57.536Z,2.09
2022-12-03T01:23:25.715Z,2.17
2022-12-03T01:25:53.911Z,2.22
2022-12-03T01:28:22.051Z,2.21
2022-12-03T01:31:08.643Z,2.22
2022-12-03T01:33:36.824Z,2.23
2022-12-03T01:36:05.420Z,2.22
2022-12-03T01:38:33.700Z,2.25
2022-12-03T01:41:02.634Z,2.26
2022-12-03T01:43:32.989Z,2.26
2022-12-03T01:46:01.908Z,2.28
2022-12-03T01:48:34.929Z,2.30
2022-12-03T01:51:03.569Z,2.29
2022-12-03T01:53:31.749Z,2.28
2022-12-03T01:55:59.932Z,2.27
2022-12-03T01:58:29.945Z,2.25
2022-12-03T02:01:10.504Z,2.23
2022-12-03T02:03:39.136Z,2.23
2022-12-03T02:06:21.916Z,2.25
2022-12-03T02:08:51.409Z,2.25
2022-12-03T02:11:25.692Z,2.29
2022-12-03T02:13:59.849Z,2.30
2022-12-03T02:16:29.206Z,2.29
2022-12-03T02:18:58.539Z,2.30
2022-12-03T02:21:45.612Z,2.31
2022-12-03T02:24:20.180Z,2.32
2022-12-03T02:26:48.663Z,2.33
2022-12-03T02:29:17.045Z,2.35
2022-12-03T02:31:45.503Z,2.35
2022-12-03T02:34:34.543Z,2.35
2022-12-03T02:37:04.188Z,2.36
2022-12-03T02:39:35.650Z,2.36
2022-12-03T02:42:24.613Z,2.35
2022-12-03T02:44:53.758Z,2.34
2022-12-03T02:47:23.846Z,2.33
2022-12-03T02:49:52.920Z,2.27
2022-12-03T02:52:21.180Z,2.33
2022-12-03T02:54:49.889Z,2.31
2022-12-03T02:57:18.202Z,2.28
2022-12-03T02:59:46.846Z,2.29
2022-12-03T03:02:15.488Z,2.31
2022-12-03T03:04:44.827Z,2.32
2022-12-03T03:07:14.324Z,2.33
2022-12-03T03:09:43.226Z,2.33
2022-12-03T03:12:12.100Z,2.34
2022-12-03T03:14:40.387Z,2.35
2022-12-03T03:17:08.677Z,2.34
2022-12-03T03:19:36.955Z,2.34
2022-12-03T03:22:05.648Z,2.34
2022-12-03T03:24:33.902Z,2.34
2022-12-03T03:27:02.180Z,2.35
2022-12-03T03:29:32.253Z,2.37
2022-12-03T03:32:02.165Z,2.36
2022-12-03T03:34:33.023Z,2.33
2022-12-03T03:37:01.337Z,2.32
2022-12-03T03:39:29.615Z,2.31
2022-12-03T03:41:57.895Z,2.33
2022-12-03T03:44:26.156Z,2.33
2022-12-03T03:46:55.373Z,2.35
2022-12-03T03:49:23.748Z,2.36
2022-12-03T03:51:52.220Z,2.37
2022-12-03T03:54:20.800Z,2.36
2022-12-03T03:56:49.394Z,2.33
2022-12-03T03:59:18.027Z,2.32
2022-12-03T04:01:46.581Z,2.34
2022-12-03T04:04:24.802Z,2.35
2022-12-03T04:06:53.376Z,2.34
2022-12-03T04:09:21.622Z,2.31
2022-12-03T04:12:08.560Z,2.33
2022-12-03T04:14:36.705Z,2.33
2022-12-03T04:17:05.013Z,2.32
2022-12-03T04:19:33.079Z,2.34
2022-12-03T04:22:19.870Z,2.34
2022-12-03T04:24:48.479Z,2.30
2022-12-03T04:27:35.474Z,2.37
2022-12-03T04:30:04.014Z,2.35
2022-12-03T04:32:51.068Z,2.36
2022-12-03T04:35:38.540Z,2.38
2022-12-03T04:38:06.983Z,2.40
2022-12-03T04:41:10.579Z,2.40
2022-12-03T04:43:58.739Z,2.39
2022-12-03T04:46:26.903Z,2.41
2022-12-03T04:48:55.179Z,2.42
2022-12-03T04:51:23.369Z,2.43
2022-12-03T04:53:51.511Z,2.43
2022-12-03T04:56:19.694Z,2.41
2022-12-03T04:58:47.975Z,2.40
2022-12-03T05:01:17.436Z,2.40
2022-12-03T05:03:45.958Z,2.40
2022-12-03T05:06:14.139Z,2.39
2022-12-03T05:08:42.396Z,2.40
2022-12-03T05:11:10.895Z,2.40
2022-12-03T05:13:39.059Z,2.40
2022-12-03T05:16:07.839Z,2.40
2022-12-03T05:18:35.915Z,2.39
2022-12-03T05:21:04.825Z,2.39
2022-12-03T05:23:33.716Z,2.39
2022-12-03T05:26:02.192Z,2.39
2022-12-03T05:28:30.557Z,2.42
2022-12-03T05:30:58.788Z,2.43
2022-12-03T05:33:27.012Z,2.44
2022-12-03T05:35:55.402Z,2.41
2022-12-03T05:38:23.771Z,2.42
2022-12-03T05:40:51.936Z,2.39
2022-12-03T05:43:20.126Z,2.35
2022-12-03T05:45:48.390Z,2.41
2022-12-03T05:48:17.387Z,2.44
2022-12-03T05:50:47.107Z,2.46
2022-12-03T05:53:19.786Z,2.44
2022-12-03T05:55:47.961Z,2.47
2022-12-03T05:58:16.340Z,2.48
2022-12-03T06:00:45.733Z,2.50
2022-12-03T06:03:14.053Z,2.52
2022-12-03T06:05:42.297Z,2.61
2022-12-03T06:08:10.614Z,2.71
2022-12-03T06:10:39.045Z,2.76
2022-12-03T06:13:07.226Z,2.83
2022-12-03T06:15:40.392Z,2.80
2022-12-03T06:18:12.179Z,2.80
2022-12-03T06:20:40.545Z,2.80
2022-12-03T06:23:08.719Z,2.79
2022-12-03T06:25:37.207Z,2.80
2022-12-03T06:28:06.218Z,2.84
2022-12-03T06:30:36.036Z,2.88
2022-12-03T06:33:04.450Z,2.91
2022-12-03T06:35:32.772Z,2.96
2022-12-03T06:38:01.248Z,2.98
2022-12-03T06:40:29.763Z,3.01
2022-12-03T06:42:59.099Z,3.01
2022-12-03T06:45:28.130Z,2.99
2022-12-03T06:47:56.301Z,2.98
2022-12-03T06:50:24.574Z,3.02
2022-12-03T06:52:52.962Z,3.01
2022-12-03T06:55:21.131Z,2.98
2022-12-03T06:57:49.741Z,2.97
2022-12-03T07:00:18.818Z,2.96
2022-12-03T07:02:47.359Z,2.99
2022-12-03T07:05:16.180Z,3.00
2022-12-03T07:07:47.423Z,3.06
2022-12-03T07:10:16.010Z,3.08
2022-12-03T07:12:44.615Z,3.11
2022-12-03T07:15:13.387Z,3.12
2022-12-03T07:17:41.749Z,3.09
2022-12-03T07:20:10.962Z,3.00
2022-12-03T07:22:39.349Z,2.99
2022-12-03T07:25:08.542Z,2.98
2022-12-03T07:27:36.710Z,2.95
2022-12-03T07:30:08.422Z,2.92
2022-12-03T07:32:36.842Z,2.91
2022-12-03T07:35:07.781Z,2.89
2022-12-03T07:37:36.285Z,2.90
2022-12-03T07:40:06.353Z,2.90
2022-12-03T07:42:34.763Z,2.84
2022-12-03T07:45:03.587Z,2.97
2022-12-03T07:47:32.340Z,2.98
2022-12-03T07:50:00.725Z,3.01
2022-12-03T07:52:29.205Z,3.03
2022-12-03T07:54:58.207Z,3.07
2022-12-03T07:57:28.006Z,3.09
2022-12-03T07:59:56.786Z,3.12
2022-12-03T08:02:25.222Z,3.16
2022-12-03T08:04:54.991Z,3.22
2022-12-03T08:07:24.409Z,3.31
2022-12-03T08:09:53.483Z,3.29
2022-12-03T08:12:45.736Z,3.37
2022-12-03T08:15:20.954Z,3.28
2022-12-03T08:17:56.471Z,3.27
2022-12-03T08:20:28.576Z,3.28
2022-12-03T08:22:57.672Z,3.30
2022-12-03T08:25:29.859Z,3.34
2022-12-03T08:28:17.140Z,3.41
2022-12-03T08:30:59.993Z,3.42
2022-12-03T08:33:35.926Z,3.50
2022-12-03T08:36:25.694Z,3.58
2022-12-03T08:39:01.083Z,3.39
2022-12-03T08:41:49.075Z,3.39
2022-12-03T08:44:28.017Z,3.40
2022-12-03T08:47:13.271Z,3.41
2022-12-03T08:49:45.030Z,3.43
2022-12-03T08:52:19.703Z,3.47
2022-12-03T08:54:53.557Z,3.53
2022-12-03T08:57:27.983Z,3.56
2022-12-03T09:00:15.641Z,3.58
2022-12-03T09:02:52.438Z,3.59
2022-12-03T09:05:24.241Z,3.59
2022-12-03T09:07:52.771Z,3.56
2022-12-03T09:10:21.923Z,3.55
2022-12-03T09:12:50.527Z,3.54
2022-12-03T09:15:18.904Z,3.57
2022-12-03T09:17:47.375Z,3.63
2022-12-03T09:20:16.166Z,3.68
2022-12-03T09:22:44.749Z,3.72
2022-12-03T09:25:13.233Z,3.74
2022-12-03T09:27:41.715Z,3.71
2022-12-03T09:30:10.979Z,3.72
2022-12-03T09:32:39.988Z,3.72
2022-12-03T09:35:10.174Z,3.71
2022-12-03T09:37:38.962Z,3.71
2022-12-03T09:40:10.136Z,3.75
2022-12-03T09:42:40.152Z,3.81
2022-12-03T09:45:12.613Z,3.86
2022-12-03T09:47:46.824Z,3.83
2022-12-03T09:50:20.896Z,3.83
2022-12-03T09:52:52.525Z,3.86
2022-12-03T09:55:24.859Z,3.93
2022-12-03T09:57:55.844Z,4.00
2022-12-03T10:00:27.495Z,4.03
2022-12-03T10:03:04.491Z,4.06
2022-12-03T10:05:35.131Z,4.10
2022-12-03T10:08:06.908Z,4.15
2022-12-03T10:10:37.438Z,4.16
2022-12-03T10:13:07.923Z,4.16
2022-12-03T10:15:38.052Z,4.18
2022-12-03T10:18:22.171Z,4.21
2022-12-03T10:20:53.391Z,4.25
2022-12-03T10:23:31.479Z,4.29
2022-12-03T10:26:05.973Z,4.33
2022-12-03T10:28:41.059Z,4.36
2022-12-03T10:31:12.644Z,4.37
2022-12-03T10:33:47.654Z,4.40
2022-12-03T10:36:18.695Z,4.40
2022-12-03T10:39:05.362Z,4.24
2022-12-03T10:41:34.055Z,4.37
2022-12-03T10:44:32.137Z,4.38
2022-12-03T10:47:12.590Z,4.38
2022-12-03T10:49:42.102Z,4.39
2022-12-03T10:52:25.953Z,4.37
2022-12-03T10:54:56.537Z,4.40
2022-12-03T10:57:27.257Z,4.43
2022-12-03T10:59:56.023Z,4.42
2022-12-03T11:02:26.134Z,4.43
2022-12-03T11:04:55.718Z,4.43
2022-12-03T11:07:26.529Z,4.40
2022-12-03T11:09:55.754Z,4.26
2022-12-03T11:12:28.119Z,4.35
2022-12-03T11:14:57.938Z,4.34
2022-12-03T11:17:52.329Z,4.31
2022-12-03T11:20:23.015Z,4.28
2022-12-03T11:22:56.863Z,4.28
2022-12-03T11:25:25.354Z,4.21
2022-12-03T11:28:12.895Z,4.18
2022-12-03T11:30:54.919Z,4.17
2022-12-03T11:33:29.812Z,4.31
2022-12-03T11:36:05.311Z,4.37
2022-12-03T11:38:52.393Z,4.40
2022-12-03T11:41:33.955Z,4.43
2022-12-03T11:44:06.221Z,4.47
2022-12-03T11:46:37.747Z,4.49
2022-12-03T11:49:35.043Z,4.53
2022-12-03T11:52:20.916Z,4.58
2022-12-03T11:54:56.003Z,4.61
2022-12-03T11:57:39.219Z,4.61
2022-12-03T12:00:23.303Z,4.59
2022-12-03T12:02:55.224Z,4.58
2022-12-03T12:05:24.204Z,4.58
2022-12-03T12:07:53.712Z,4.58
2022-12-03T12:10:47.661Z,4.59
2022-12-03T12:13:25.341Z,4.59
2022-12-03T12:15:54.453Z,4.62
2022-12-03T12:18:46.132Z,4.62
2022-12-03T12:21:43.042Z,4.65
2022-12-03T12:24:41.386Z,4.68
2022-12-03T12:27:17.495Z,4.70
2022-12-03T12:29:55.872Z,4.73
2022-12-03T12:32:39.452Z,4.77
2022-12-03T12:35:24.507Z,4.81
2022-12-03T12:37:59.807Z,4.85
2022-12-03T12:40:34.140Z,4.87
2022-12-03T12:43:20.340Z,4.86
2022-12-03T12:45:56.704Z,4.85
2022-12-03T12:48:35.510Z,4.86
2022-12-03T12:51:12.380Z,4.87
2022-12-03T12:53:44.176Z,4.87
2022-12-03T12:56:25.130Z,4.88
2022-12-03T12:58:54.538Z,4.87
2022-12-03T13:01:30.673Z,4.86
2022-12-03T13:04:00.288Z,4.85
2022-12-03T13:06:32.503Z,4.85
2022-12-03T13:09:04.325Z,4.85
2022-12-03T13:11:47.415Z,4.87
2022-12-03T13:14:22.704Z,4.93
2022-12-03T13:16:53.665Z,4.96
2022-12-03T13:19:27.807Z,5.00
2022-12-03T13:22:00.391Z,5.04
2022-12-03T13:24:41.500Z,5.04
2022-12-03T13:27:23.390Z,5.04
2022-12-03T13:30:00.644Z,5.05
2022-12-03T13:32:35.157Z,5.07
2022-12-03T13:35:10.367Z,5.07
2022-12-03T13:37:39.546Z,5.08
2022-12-03T13:40:24.104Z,5.08
2022-12-03T13:42:53.555Z,5.08
2022-12-03T13:45:24.847Z,5.07
2022-12-03T13:47:56.527Z,5.07
2022-12-03T13:50:40.046Z,5.08
2022-12-03T13:53:12.151Z,5.09
2022-12-03T13:55:45.610Z,5.11
2022-12-03T13:58:14.090Z,5.12
2022-12-03T14:00:42.755Z,5.09
2022-12-03T14:03:11.551Z,5.06
2022-12-03T14:05:40.348Z,5.07
2022-12-03T14:08:09.179Z,5.06
2022-12-03T14:10:37.723Z,5.08
2022-12-03T14:13:06.278Z,5.10
2022-12-03T14:15:35.843Z,5.14
2022-12-03T14:18:05.025Z,5.16
2022-12-03T14:20:35.558Z,5.18
2022-12-03T14:23:05.177Z,5.20
2022-12-03T14:25:34.375Z,5.22
2022-12-03T14:28:05.902Z,5.25
2022-12-03T14:30:35.353Z,5.26
2022-12-03T14:33:04.186Z,5.24
2022-12-03T14:35:32.577Z,5.24
2022-12-03T14:38:01.358Z,5.23
2022-12-03T14:40:30.988Z,5.22
2022-12-03T14:43:00.269Z,5.21
2022-12-03T14:45:30.416Z,5.20
2022-12-03T14:47:58.870Z,5.16
2022-12-03T14:50:27.254Z,5.14
2022-12-03T14:52:55.870Z,5.14
2022-12-03T14:55:24.413Z,5.16
2022-12-03T14:57:53.002Z,5.18
2022-12-03T15:00:23.427Z,5.19
2022-12-03T15:02:51.840Z,5.19
2022-12-03T15:05:27.880Z,5.22
2022-12-03T15:07:57.422Z,5.17
2022-12-03T15:10:25.966Z,5.22
2022-12-03T15:12:55.660Z,5.22
2022-12-03T15:15:24.002Z,5.25
2022-12-03T15:17:53.174Z,5.25
2022-12-03T15:20:21.738Z,5.26
2022-12-03T15:22:50.304Z,5.26
2022-12-03T15:25:25.700Z,5.28
2022-12-03T15:27:54.226Z,5.29
2022-12-03T15:30:22.599Z,5.27
2022-12-03T15:32:51.181Z,5.27
2022-12-03T15:35:19.538Z,5.25
2022-12-03T15:37:47.846Z,5.26
2022-12-03T15:40:16.333Z,5.26
2022-12-03T15:42:44.813Z,5.25
2022-12-03T15:45:15.331Z,5.26
2022-12-03T15:47:44.834Z,5.27
2022-12-03T15:50:14.770Z,5.29
2022-12-03T15:52:43.455Z,5.30
2022-12-03T15:55:12.129Z,5.31
2022-12-03T15:57:40.716Z,5.30
2022-12-03T16:00:11.535Z,5.30
2022-12-03T16:02:50.752Z,5.27
2022-12-03T16:05:22.337Z,5.26
2022-12-03T16:07:54.227Z,5.25
2022-12-03T16:10:22.770Z,5.23
2022-12-03T16:12:51.937Z,5.24
2022-12-03T16:15:26.477Z,5.22
2022-12-03T16:17:55.696Z,5.20
2022-12-03T16:20:24.204Z,5.18
2022-12-03T16:22:52.652Z,5.16
2022-12-03T16:25:21.039Z,5.12
2022-12-03T16:27:49.624Z,5.13
2022-12-03T16:30:18.317Z,5.13
2022-12-03T16:32:46.898Z,5.10
2022-12-03T16:35:15.309Z,5.09
2022-12-03T16:37:43.851Z,5.08
2022-12-03T16:40:12.741Z,5.08
2022-12-03T16:42:41.253Z,5.07
2022-12-03T16:45:11.055Z,5.05
2022-12-03T16:47:39.938Z,5.06
2022-12-03T16:50:14.584Z,5.07
2022-12-03T16:52:48.484Z,5.07
2022-12-03T16:55:17.592Z,5.06
2022-12-03T16:57:46.449Z,5.08
2022-12-03T17:00:16.487Z,5.10
2022-12-03T17:02:45.586Z,5.11
2022-12-03T17:05:14.859Z,5.12
2022-12-03T17:07:44.278Z,5.12
2022-12-03T17:10:13.514Z,5.14
2022-12-03T17:13:08.255Z,5.14
2022-12-03T17:15:31.801Z,5.14
2022-12-03T17:18:01.536Z,5.12
2022-12-03T17:20:32.300Z,5.11
2022-12-03T17:23:02.480Z,5.10
2022-12-03T17:25:31.703Z,5.08
2022-12-03T17:28:01.380Z,5.06
2022-12-03T17:30:30.545Z,5.05
2022-12-03T17:32:59.527Z,5.03
2022-12-03T17:35:29.332Z,5.04
2022-12-03T17:37:59.332Z,5.04
2022-12-03T17:40:29.243Z,5.03
2022-12-03T17:42:58.649Z,5.01
2022-12-03T17:45:28.248Z,5.01
2022-12-03T17:47:58.073Z,4.99
2022-12-03T17:50:26.859Z,5.00
2022-12-03T17:52:55.746Z,4.99
2022-12-03T17:55:33.871Z,4.98
2022-12-03T17:58:06.729Z,4.99
2022-12-03T18:00:35.210Z,4.99
2022-12-03T18:03:03.801Z,4.95
2022-12-03T18:05:32.283Z,4.91
2022-12-03T18:08:00.907Z,4.87
2022-12-03T18:10:30.099Z,4.90
2022-12-03T18:13:01.971Z,4.91
2022-12-03T18:15:32.874Z,4.90
2022-12-03T18:18:02.573Z,4.91
2022-12-03T18:20:33.549Z,4.93
2022-12-03T18:23:02.838Z,4.92
2022-12-03T18:25:33.005Z,4.91
2022-12-03T18:28:02.551Z,4.93
2022-12-03T18:30:31.520Z,4.95
2022-12-03T18:33:01.914Z,4.97
2022-12-03T18:35:34.371Z,4.98
2022-12-03T18:38:03.397Z,4.99
2022-12-03T18:40:32.413Z,5.00
2022-12-03T18:43:01.527Z,4.99
2022-12-03T18:45:30.848Z,5.00
2022-12-03T18:48:00.659Z,5.01
2022-12-03T18:50:30.726Z,5.01
2022-12-03T18:53:00.868Z,5.01
2022-12-03T18:55:35.246Z,5.01
2022-12-03T18:58:04.503Z,5.01
2022-12-03T19:00:36.128Z,5.00
2022-12-03T19:03:06.235Z,5.01
2022-12-03T19:05:37.703Z,5.00
2022-12-03T19:08:15.059Z,4.99
2022-12-03T19:10:45.618Z,4.96
2022-12-03T19:13:16.602Z,4.93
2022-12-03T19:15:50.245Z,4.94
2022-12-03T19:18:21.051Z,4.96
2022-12-03T19:20:51.647Z,4.98
2022-12-03T19:23:20.946Z,4.99
2022-12-03T19:26:01.840Z,5.00
2022-12-03T19:28:31.429Z,5.02
2022-12-03T19:31:02.421Z,5.03
2022-12-03T19:33:32.449Z,5.03
2022-12-03T19:36:04.249Z,5.04
2022-12-03T19:38:34.565Z,5.04
2022-12-03T19:41:06.890Z,5.03
2022-12-03T19:43:37.653Z,4.96
2022-12-03T19:46:11.134Z,4.96
2022-12-03T19:48:40.981Z,5.02
2022-12-03T19:51:33.068Z,5.02
2022-12-03T19:54:01.555Z,5.03
2022-12-03T19:56:33.507Z,5.03
2022-12-03T19:59:03.596Z,5.03
2022-12-03T20:01:36.346Z,4.95
2022-12-03T20:04:09.211Z,4.93
2022-12-03T20:06:40.576Z,4.93
2022-12-03T20:09:17.871Z,4.91
2022-12-03T20:11:50.150Z,4.90
2022-12-03T20:14:20.585Z,4.90
2022-12-03T20:16:49.827Z,4.91
2022-12-03T20:19:18.866Z,4.92
2022-12-03T20:21:47.657Z,4.91
2022-12-03T20:24:18.452Z,4.91
2022-12-03T20:26:48.616Z,4.91
2022-12-03T20:29:18.615Z,4.92
2022-12-03T20:31:48.535Z,4.94
2022-12-03T20:34:21.082Z,4.95
2022-12-03T20:36:51.997Z,4.95
2022-12-03T20:39:20.648Z,4.96
2022-12-03T20:41:49.359Z,4.97
2022-12-03T20:44:18.366Z,4.98
2022-12-03T20:46:48.010Z,4.93
2022-12-03T20:49:17.284Z,5.00
2022-12-03T20:51:51.054Z,4.99
2022-12-03T20:54:20.210Z,4.98
2022-12-03T20:56:49.751Z,4.97
2022-12-03T20:59:19.745Z,4.98
2022-12-03T21:01:49.373Z,5.00
2022-12-03T21:04:18.826Z,5.01
2022-12-03T21:06:49.401Z,5.03
2022-12-03T21:09:19.186Z,5.04
2022-12-03T21:11:48.255Z,5.05
2022-12-03T21:14:19.576Z,5.05
2022-12-03T21:19:40.575Z,5.03
2022-12-03T21:22:09.522Z,5.03
2022-12-03T21:24:40.128Z,5.02
2022-12-03T21:27:09.050Z,5.04
2022-12-03T21:29:39.214Z,5.04
2022-12-03T21:32:08.565Z,5.06
2022-12-03T21:34:38.282Z,5.03
2022-12-03T21:37:07.049Z,5.09
2022-12-03T21:39:36.270Z,5.12
2022-12-03T21:42:33.390Z,5.12
2022-12-03T21:44:55.145Z,5.11
2022-12-03T21:47:25.141Z,5.10
2022-12-03T21:49:55.066Z,5.08
2022-12-03T21:52:24.851Z,5.08
2022-12-03T21:54:55.052Z,5.07
2022-12-03T21:57:24.770Z,5.05
2022-12-03T21:59:55.226Z,5.04
2022-12-03T22:02:24.350Z,5.05
2022-12-03T22:04:53.653Z,5.06
2022-12-03T22:07:22.526Z,5.07
2022-12-03T22:09:51.148Z,5.06
2022-12-03T22:12:20.098Z,5.06
2022-12-03T22:14:48.971Z,5.05
2022-12-03T22:17:20.539Z,5.05
2022-12-03T22:19:51.188Z,5.04
2022-12-03T22:22:21.074Z,5.03
2022-12-03T22:24:50.081Z,5.05
2022-12-03T22:27:18.661Z,5.04
2022-12-03T22:29:47.065Z,5.05
2022-12-03T22:32:16.466Z,5.06
2022-12-03T22:34:45.045Z,5.06
2022-12-03T22:37:14.574Z,5.05
2022-12-03T22:39:44.181Z,5.02
2022-12-03T22:42:12.935Z,5.09
2022-12-03T22:44:42.227Z,5.08
2022-12-03T22:47:11.966Z,5.06
2022-12-03T22:49:40.561Z,5.08
2022-12-03T22:52:10.415Z,5.04
2022-12-03T22:54:39.852Z,5.08
2022-12-03T22:57:08.636Z,5.07
2022-12-03T22:59:38.346Z,5.08
2022-12-03T23:02:07.225Z,5.08
2022-12-03T23:04:35.814Z,5.09
2022-12-03T23:07:05.827Z,5.07
2022-12-03T23:09:34.516Z,5.06
2022-12-03T23:12:03.004Z,5.06
2022-12-03T23:14:32.095Z,5.05
2022-12-03T23:17:02.011Z,5.05
2022-12-03T23:19:31.000Z,5.05
2022-12-03T23:21:59.485Z,5.04
2022-12-03T23:24:29.021Z,5.03
2022-12-03T23:26:57.825Z,5.00
2022-12-03T23:29:26.883Z,4.96
2022-12-03T23:31:57.626Z,4.96
2022-12-03T23:34:26.117Z,4.97
2022-12-03T23:36:54.471Z,4.97
2022-12-03T23:39:22.908Z,4.96
2022-12-03T23:41:53.120Z,4.92
2022-12-03T23:44:21.745Z,4.89
2022-12-03T23:46:50.016Z,4.84
2022-12-03T23:49:18.511Z,4.84
2022-12-03T23:51:47.224Z,4.84
2022-12-03T23:54:15.676Z,4.85
2022-12-03T23:56:45.376Z,4.85
2022-12-03T23:59:13.863Z,4.83
